sensor_id;sensor_type;location;lat;lon;timestamp;P1;durP1;ratioP1;P2;durP2;ratioP2
11076;SDS011;5591;42.626;23.380;2022-09-06T00:00:53;5.57;;;5.07;;
11076;SDS011;5591;42.626;23.380;2022-09-06T00:03:21;5.13;;;4.60;;
11076;SDS011;5591;42.626;23.380;2022-09-06T00:05:48;5.93;;;4.87;;
11076;SDS011;5591;42.626;23.380;2022-09-06T00:08:15;8.33;;;4.90;;
11076;SDS011;5591;42.626;23.380;2022-09-06T00:10:42;8.27;;;4.90;;
11076;SDS011;5591;42.626;23.380;2022-09-06T00:13:09;5.57;;;4.90;;
11076;SDS011;5591;42.626;23.380;2022-09-06T00:15:38;6.33;;;4.80;;
11076;SDS011;5591;42.626;23.380;2022-09-06T00:18:05;5.73;;;5.23;;
11076;SDS011;5591;42.626;23.380;2022-09-06T00:20:34;7.33;;;5.87;;
11076;SDS011;5591;42.626;23.380;2022-09-06T00:23:05;6.40;;;5.30;;
11076;SDS011;5591;42.626;23.380;2022-09-06T00:25:33;6.23;;;5.10;;
11076;SDS011;5591;42.626;23.380;2022-09-06T00:28:01;5.70;;;5.20;;
11076;SDS011;5591;42.626;23.380;2022-09-06T00:30:31;5.70;;;5.00;;
11076;SDS011;5591;42.626;23.380;2022-09-06T00:33:00;6.27;;;5.10;;
11076;SDS011;5591;42.626;23.380;2022-09-06T00:35:27;5.57;;;4.90;;
11076;SDS011;5591;42.626;23.380;2022-09-06T00:37:57;6.53;;;4.90;;
11076;SDS011;5591;42.626;23.380;2022-09-06T00:40:24;5.30;;;4.90;;
11076;SDS011;5591;42.626;23.380;2022-09-06T00:42:53;5.10;;;4.70;;
11076;SDS011;5591;42.626;23.380;2022-09-06T00:45:20;5.03;;;4.60;;
11076;SDS011;5591;42.626;23.380;2022-09-06T00:47:48;5.20;;;4.70;;
11076;SDS011;5591;42.626;23.380;2022-09-06T00:50:17;5.93;;;4.87;;
11076;SDS011;5591;42.626;23.380;2022-09-06T00:52:45;5.00;;;4.50;;
11076;SDS011;5591;42.626;23.380;2022-09-06T00:55:15;4.97;;;4.57;;
11076;SDS011;5591;42.626;23.380;2022-09-06T00:57:42;6.00;;;4.80;;
11076;SDS011;5591;42.626;23.380;2022-09-06T01:00:10;4.77;;;4.30;;
11076;SDS011;5591;42.626;23.380;2022-09-06T01:02:40;5.20;;;4.80;;
11076;SDS011;5591;42.626;23.380;2022-09-06T01:05:08;5.30;;;4.80;;
11076;SDS011;5591;42.626;23.380;2022-09-06T01:07:50;5.40;;;4.90;;
11076;SDS011;5591;42.626;23.380;2022-09-06T01:10:43;4.77;;;4.37;;
11076;SDS011;5591;42.626;23.380;2022-09-06T01:13:24;7.13;;;4.63;;
11076;SDS011;5591;42.626;23.380;2022-09-06T01:16:00;5.90;;;4.53;;
11076;SDS011;5591;42.626;23.380;2022-09-06T01:18:42;6.67;;;4.70;;
11076;SDS011;5591;42.626;23.380;2022-09-06T01:21:27;5.50;;;4.60;;
11076;SDS011;5591;42.626;23.380;2022-09-06T01:24:10;5.10;;;4.60;;
11076;SDS011;5591;42.626;23.380;2022-09-06T01:29:59;6.70;;;4.20;;
11076;SDS011;5591;42.626;23.380;2022-09-06T01:32:29;7.73;;;4.93;;
11076;SDS011;5591;42.626;23.380;2022-09-06T01:35:02;5.23;;;4.73;;
11076;SDS011;5591;42.626;23.380;2022-09-06T01:37:37;5.87;;;4.37;;
11076;SDS011;5591;42.626;23.380;2022-09-06T01:40:04;5.20;;;4.50;;
11076;SDS011;5591;42.626;23.380;2022-09-06T01:42:31;5.63;;;4.70;;
11076;SDS011;5591;42.626;23.380;2022-09-06T01:45:03;4.57;;;4.17;;
11076;SDS011;5591;42.626;23.380;2022-09-06T01:47:35;5.07;;;4.60;;
11076;SDS011;5591;42.626;23.380;2022-09-06T01:52:58;5.00;;;4.60;;
11076;SDS011;5591;42.626;23.380;2022-09-06T01:55:34;6.03;;;5.00;;
11076;SDS011;5591;42.626;23.380;2022-09-06T01:58:23;5.27;;;4.40;;
11076;SDS011;5591;42.626;23.380;2022-09-06T02:01:07;6.27;;;4.50;;
11076;SDS011;5591;42.626;23.380;2022-09-06T02:03:46;4.77;;;4.37;;
11076;SDS011;5591;42.626;23.380;2022-09-06T02:06:19;7.30;;;4.60;;
11076;SDS011;5591;42.626;23.380;2022-09-06T02:08:52;4.57;;;4.17;;
11076;SDS011;5591;42.626;23.380;2022-09-06T02:11:22;4.90;;;4.50;;
11076;SDS011;5591;42.626;23.380;2022-09-06T02:13:52;5.20;;;4.50;;
11076;SDS011;5591;42.626;23.380;2022-09-06T02:16:25;4.77;;;4.30;;
11076;SDS011;5591;42.626;23.380;2022-09-06T02:18:55;5.10;;;4.40;;
11076;SDS011;5591;42.626;23.380;2022-09-06T02:21:29;5.20;;;4.70;;
11076;SDS011;5591;42.626;23.380;2022-09-06T02:24:00;6.07;;;4.37;;
11076;SDS011;5591;42.626;23.380;2022-09-06T02:26:33;10.67;;;4.70;;
11076;SDS011;5591;42.626;23.380;2022-09-06T02:29:03;5.43;;;4.30;;
11076;SDS011;5591;42.626;23.380;2022-09-06T02:31:32;7.73;;;5.23;;
11076;SDS011;5591;42.626;23.380;2022-09-06T02:34:02;5.10;;;4.60;;
11076;SDS011;5591;42.626;23.380;2022-09-06T02:36:30;4.80;;;4.40;;
11076;SDS011;5591;42.626;23.380;2022-09-06T02:38:58;5.97;;;4.53;;
11076;SDS011;5591;42.626;23.380;2022-09-06T02:41:25;6.23;;;4.83;;
11076;SDS011;5591;42.626;23.380;2022-09-06T02:43:53;5.60;;;4.70;;
11076;SDS011;5591;42.626;23.380;2022-09-06T02:46:20;4.90;;;4.50;;
11076;SDS011;5591;42.626;23.380;2022-09-06T02:48:49;6.10;;;4.83;;
11076;SDS011;5591;42.626;23.380;2022-09-06T02:51:16;6.30;;;4.80;;
11076;SDS011;5591;42.626;23.380;2022-09-06T02:53:44;5.40;;;4.50;;
11076;SDS011;5591;42.626;23.380;2022-09-06T02:56:11;7.53;;;4.90;;
11076;SDS011;5591;42.626;23.380;2022-09-06T02:58:38;5.50;;;4.47;;
11076;SDS011;5591;42.626;23.380;2022-09-06T03:01:05;5.37;;;4.87;;
11076;SDS011;5591;42.626;23.380;2022-09-06T03:03:32;5.50;;;5.00;;
11076;SDS011;5591;42.626;23.380;2022-09-06T03:06:00;5.50;;;5.00;;
11076;SDS011;5591;42.626;23.380;2022-09-06T03:08:27;6.13;;;5.00;;
11076;SDS011;5591;42.626;23.380;2022-09-06T03:10:57;5.50;;;4.97;;
11076;SDS011;5591;42.626;23.380;2022-09-06T03:13:25;5.70;;;5.20;;
11076;SDS011;5591;42.626;23.380;2022-09-06T03:15:52;7.87;;;5.07;;
11076;SDS011;5591;42.626;23.380;2022-09-06T03:18:20;6.40;;;5.80;;
11076;SDS011;5591;42.626;23.380;2022-09-06T03:20:47;6.50;;;5.67;;
11076;SDS011;5591;42.626;23.380;2022-09-06T03:23:16;6.20;;;5.50;;
11076;SDS011;5591;42.626;23.380;2022-09-06T03:25:43;8.47;;;6.10;;
11076;SDS011;5591;42.626;23.380;2022-09-06T03:28:10;6.17;;;5.67;;
11076;SDS011;5591;42.626;23.380;2022-09-06T03:30:37;6.50;;;5.67;;
11076;SDS011;5591;42.626;23.380;2022-09-06T03:33:04;6.40;;;5.80;;
11076;SDS011;5591;42.626;23.380;2022-09-06T03:35:31;5.80;;;5.30;;
11076;SDS011;5591;42.626;23.380;2022-09-06T03:37:58;6.00;;;5.50;;
11076;SDS011;5591;42.626;23.380;2022-09-06T03:40:26;6.20;;;5.57;;
11076;SDS011;5591;42.626;23.380;2022-09-06T03:42:53;6.63;;;5.50;;
11076;SDS011;5591;42.626;23.380;2022-09-06T03:45:20;7.83;;;5.80;;
11076;SDS011;5591;42.626;23.380;2022-09-06T03:47:46;6.20;;;5.50;;
11076;SDS011;5591;42.626;23.380;2022-09-06T03:50:13;6.73;;;5.37;;
11076;SDS011;5591;42.626;23.380;2022-09-06T03:52:40;6.47;;;5.80;;
11076;SDS011;5591;42.626;23.380;2022-09-06T03:55:07;6.70;;;6.00;;
11076;SDS011;5591;42.626;23.380;2022-09-06T03:57:37;6.50;;;5.90;;
11076;SDS011;5591;42.626;23.380;2022-09-06T04:00:05;6.90;;;6.30;;
11076;SDS011;5591;42.626;23.380;2022-09-06T04:02:33;9.17;;;6.00;;
11076;SDS011;5591;42.626;23.380;2022-09-06T04:05:00;6.67;;;5.97;;
11076;SDS011;5591;42.626;23.380;2022-09-06T04:07:26;6.80;;;6.10;;
11076;SDS011;5591;42.626;23.380;2022-09-06T04:09:53;8.07;;;6.00;;
11076;SDS011;5591;42.626;23.380;2022-09-06T04:12:20;7.00;;;6.37;;
11076;SDS011;5591;42.626;23.380;2022-09-06T04:14:48;8.50;;;6.40;;
11076;SDS011;5591;42.626;23.380;2022-09-06T04:17:15;7.53;;;6.83;;
11076;SDS011;5591;42.626;23.380;2022-09-06T04:19:42;6.93;;;6.23;;
11076;SDS011;5591;42.626;23.380;2022-09-06T04:22:09;6.90;;;6.30;;
11076;SDS011;5591;42.626;23.380;2022-09-06T04:24:35;9.43;;;6.20;;
11076;SDS011;5591;42.626;23.380;2022-09-06T04:27:02;7.33;;;6.00;;
11076;SDS011;5591;42.626;23.380;2022-09-06T04:29:29;6.73;;;6.00;;
11076;SDS011;5591;42.626;23.380;2022-09-06T04:31:58;6.60;;;6.03;;
11076;SDS011;5591;42.626;23.380;2022-09-06T04:34:24;6.50;;;5.90;;
11076;SDS011;5591;42.626;23.380;2022-09-06T04:36:51;7.10;;;5.80;;
11076;SDS011;5591;42.626;23.380;2022-09-06T04:39:18;6.93;;;5.93;;
11076;SDS011;5591;42.626;23.380;2022-09-06T04:41:45;7.20;;;6.50;;
11076;SDS011;5591;42.626;23.380;2022-09-06T04:44:11;7.10;;;6.07;;
11076;SDS011;5591;42.626;23.380;2022-09-06T04:46:39;7.40;;;6.60;;
11076;SDS011;5591;42.626;23.380;2022-09-06T04:49:08;8.17;;;7.37;;
11076;SDS011;5591;42.626;23.380;2022-09-06T04:51:35;8.40;;;7.60;;
11076;SDS011;5591;42.626;23.380;2022-09-06T04:54:03;8.57;;;7.77;;
11076;SDS011;5591;42.626;23.380;2022-09-06T04:56:30;8.53;;;7.73;;
11076;SDS011;5591;42.626;23.380;2022-09-06T04:58:57;8.63;;;7.70;;
11076;SDS011;5591;42.626;23.380;2022-09-06T05:01:23;9.43;;;8.23;;
11076;SDS011;5591;42.626;23.380;2022-09-06T05:03:50;9.20;;;8.30;;
11076;SDS011;5591;42.626;23.380;2022-09-06T05:06:19;9.27;;;8.33;;
11076;SDS011;5591;42.626;23.380;2022-09-06T05:08:47;8.93;;;8.10;;
11076;SDS011;5591;42.626;23.380;2022-09-06T05:11:15;9.30;;;8.00;;
11076;SDS011;5591;42.626;23.380;2022-09-06T05:13:42;9.60;;;8.60;;
11076;SDS011;5591;42.626;23.380;2022-09-06T05:16:10;9.17;;;8.27;;
11076;SDS011;5591;42.626;23.380;2022-09-06T05:18:37;12.53;;;8.70;;
11076;SDS011;5591;42.626;23.380;2022-09-06T05:21:04;10.17;;;8.43;;
11076;SDS011;5591;42.626;23.380;2022-09-06T05:23:33;9.07;;;8.13;;
11076;SDS011;5591;42.626;23.380;2022-09-06T05:25:59;10.50;;;9.07;;
11076;SDS011;5591;42.626;23.380;2022-09-06T05:28:27;12.30;;;11.07;;
11076;SDS011;5591;42.626;23.380;2022-09-06T05:31:03;11.30;;;9.67;;
11076;SDS011;5591;42.626;23.380;2022-09-06T05:33:30;10.10;;;8.50;;
11076;SDS011;5591;42.626;23.380;2022-09-06T05:35:57;10.80;;;8.40;;
11076;SDS011;5591;42.626;23.380;2022-09-06T05:38:24;13.20;;;8.87;;
11076;SDS011;5591;42.626;23.380;2022-09-06T05:40:52;9.40;;;8.50;;
11076;SDS011;5591;42.626;23.380;2022-09-06T05:43:19;10.43;;;9.33;;
11076;SDS011;5591;42.626;23.380;2022-09-06T05:45:45;9.30;;;8.40;;
11076;SDS011;5591;42.626;23.380;2022-09-06T05:48:12;11.83;;;8.60;;
11076;SDS011;5591;42.626;23.380;2022-09-06T05:50:39;10.37;;;8.60;;
11076;SDS011;5591;42.626;23.380;2022-09-06T05:53:06;10.30;;;8.87;;
11076;SDS011;5591;42.626;23.380;2022-09-06T05:55:33;10.23;;;9.20;;
11076;SDS011;5591;42.626;23.380;2022-09-06T05:58:01;10.03;;;9.00;;
11076;SDS011;5591;42.626;23.380;2022-09-06T06:00:28;11.23;;;9.80;;
11076;SDS011;5591;42.626;23.380;2022-09-06T06:02:54;10.50;;;9.50;;
11076;SDS011;5591;42.626;23.380;2022-09-06T06:05:21;12.07;;;9.90;;
11076;SDS011;5591;42.626;23.380;2022-09-06T06:07:48;11.33;;;9.67;;
11076;SDS011;5591;42.626;23.380;2022-09-06T06:10:15;10.37;;;9.17;;
11076;SDS011;5591;42.626;23.380;2022-09-06T06:12:41;10.70;;;9.60;;
11076;SDS011;5591;42.626;23.380;2022-09-06T06:15:10;10.87;;;9.77;;
11076;SDS011;5591;42.626;23.380;2022-09-06T06:17:36;10.83;;;9.83;;
11076;SDS011;5591;42.626;23.380;2022-09-06T06:20:03;10.67;;;9.60;;
11076;SDS011;5591;42.626;23.380;2022-09-06T06:22:31;10.47;;;9.37;;
11076;SDS011;5591;42.626;23.380;2022-09-06T06:24:57;10.87;;;8.50;;
11076;SDS011;5591;42.626;23.380;2022-09-06T06:27:24;10.50;;;9.27;;
11076;SDS011;5591;42.626;23.380;2022-09-06T06:29:51;10.83;;;9.23;;
11076;SDS011;5591;42.626;23.380;2022-09-06T06:32:19;9.30;;;8.17;;
11076;SDS011;5591;42.626;23.380;2022-09-06T06:34:46;9.70;;;8.80;;
11076;SDS011;5591;42.626;23.380;2022-09-06T06:37:13;10.30;;;9.27;;
11076;SDS011;5591;42.626;23.380;2022-09-06T06:39:40;9.90;;;8.90;;
11076;SDS011;5591;42.626;23.380;2022-09-06T06:42:06;10.57;;;8.97;;
11076;SDS011;5591;42.626;23.380;2022-09-06T06:44:34;10.03;;;9.17;;
11076;SDS011;5591;42.626;23.380;2022-09-06T06:47:01;9.93;;;8.73;;
11076;SDS011;5591;42.626;23.380;2022-09-06T06:49:29;9.67;;;8.37;;
11076;SDS011;5591;42.626;23.380;2022-09-06T06:51:56;9.03;;;8.00;;
11076;SDS011;5591;42.626;23.380;2022-09-06T06:54:23;9.87;;;7.70;;
11076;SDS011;5591;42.626;23.380;2022-09-06T06:56:50;8.90;;;8.00;;
11076;SDS011;5591;42.626;23.380;2022-09-06T06:59:18;8.30;;;7.43;;
11076;SDS011;5591;42.626;23.380;2022-09-06T07:01:44;10.63;;;9.63;;
11076;SDS011;5591;42.626;23.380;2022-09-06T07:04:13;8.10;;;7.30;;
11076;SDS011;5591;42.626;23.380;2022-09-06T07:06:48;7.87;;;6.97;;
11076;SDS011;5591;42.626;23.380;2022-09-06T07:09:17;7.83;;;7.10;;
11076;SDS011;5591;42.626;23.380;2022-09-06T07:11:45;8.97;;;7.33;;
11076;SDS011;5591;42.626;23.380;2022-09-06T07:14:12;7.70;;;7.00;;
11076;SDS011;5591;42.626;23.380;2022-09-06T07:16:39;8.77;;;7.10;;
11076;SDS011;5591;42.626;23.380;2022-09-06T07:19:07;8.30;;;7.27;;
11076;SDS011;5591;42.626;23.380;2022-09-06T07:21:34;9.20;;;7.00;;
11076;SDS011;5591;42.626;23.380;2022-09-06T07:24:03;7.33;;;6.50;;
11076;SDS011;5591;42.626;23.380;2022-09-06T07:26:31;6.63;;;6.00;;
11076;SDS011;5591;42.626;23.380;2022-09-06T07:28:59;6.40;;;5.63;;
11076;SDS011;5591;42.626;23.380;2022-09-06T07:31:28;6.77;;;5.97;;
11076;SDS011;5591;42.626;23.380;2022-09-06T07:33:56;6.37;;;5.53;;
11076;SDS011;5591;42.626;23.380;2022-09-06T07:36:23;7.47;;;6.03;;
11076;SDS011;5591;42.626;23.380;2022-09-06T07:38:50;6.23;;;5.47;;
11076;SDS011;5591;42.626;23.380;2022-09-06T07:41:19;6.10;;;5.50;;
11076;SDS011;5591;42.626;23.380;2022-09-06T07:43:47;6.93;;;4.90;;
11076;SDS011;5591;42.626;23.380;2022-09-06T07:46:18;6.30;;;5.33;;
11076;SDS011;5591;42.626;23.380;2022-09-06T07:48:46;7.87;;;5.70;;
11076;SDS011;5591;42.626;23.380;2022-09-06T07:51:14;6.20;;;5.60;;
11076;SDS011;5591;42.626;23.380;2022-09-06T07:53:43;6.33;;;5.73;;
11076;SDS011;5591;42.626;23.380;2022-09-06T07:56:14;7.00;;;5.47;;
11076;SDS011;5591;42.626;23.380;2022-09-06T07:58:43;6.03;;;5.03;;
11076;SDS011;5591;42.626;23.380;2022-09-06T08:01:13;6.33;;;5.73;;
11076;SDS011;5591;42.626;23.380;2022-09-06T08:03:41;6.10;;;5.50;;
11076;SDS011;5591;42.626;23.380;2022-09-06T08:06:08;7.00;;;5.47;;
11076;SDS011;5591;42.626;23.380;2022-09-06T08:08:35;7.20;;;6.10;;
11076;SDS011;5591;42.626;23.380;2022-09-06T08:11:02;6.97;;;6.03;;
11076;SDS011;5591;42.626;23.380;2022-09-06T08:13:30;8.23;;;5.80;;
11076;SDS011;5591;42.626;23.380;2022-09-06T08:15:59;11.13;;;5.80;;
11076;SDS011;5591;42.626;23.380;2022-09-06T08:18:26;11.27;;;6.10;;
11076;SDS011;5591;42.626;23.380;2022-09-06T08:20:52;8.90;;;6.40;;
11076;SDS011;5591;42.626;23.380;2022-09-06T08:23:19;8.73;;;5.97;;
11076;SDS011;5591;42.626;23.380;2022-09-06T08:25:54;11.43;;;5.53;;
11076;SDS011;5591;42.626;23.380;2022-09-06T08:28:22;6.23;;;5.40;;
11076;SDS011;5591;42.626;23.380;2022-09-06T08:30:49;8.90;;;5.67;;
11076;SDS011;5591;42.626;23.380;2022-09-06T08:33:17;7.73;;;5.33;;
11076;SDS011;5591;42.626;23.380;2022-09-06T08:35:53;12.70;;;5.90;;
11076;SDS011;5591;42.626;23.380;2022-09-06T08:38:21;5.93;;;5.37;;
11076;SDS011;5591;42.626;23.380;2022-09-06T08:40:48;8.43;;;5.80;;
11076;SDS011;5591;42.626;23.380;2022-09-06T08:43:16;7.93;;;6.57;;
11076;SDS011;5591;42.626;23.380;2022-09-06T08:45:46;6.53;;;5.77;;
11076;SDS011;5591;42.626;23.380;2022-09-06T08:48:14;6.57;;;5.47;;
11076;SDS011;5591;42.626;23.380;2022-09-06T08:50:54;8.60;;;5.93;;
11076;SDS011;5591;42.626;23.380;2022-09-06T08:53:35;7.33;;;6.27;;
11076;SDS011;5591;42.626;23.380;2022-09-06T08:56:10;6.50;;;5.03;;
11076;SDS011;5591;42.626;23.380;2022-09-06T08:58:43;5.77;;;4.97;;
11076;SDS011;5591;42.626;23.380;2022-09-06T09:01:22;6.87;;;5.23;;
11076;SDS011;5591;42.626;23.380;2022-09-06T09:03:53;6.23;;;5.27;;
11076;SDS011;5591;42.626;23.380;2022-09-06T09:06:24;7.47;;;5.03;;
11076;SDS011;5591;42.626;23.380;2022-09-06T09:08:57;5.27;;;4.77;;
11076;SDS011;5591;42.626;23.380;2022-09-06T09:11:28;6.47;;;4.87;;
11076;SDS011;5591;42.626;23.380;2022-09-06T09:13:59;6.20;;;4.93;;
11076;SDS011;5591;42.626;23.380;2022-09-06T09:16:29;7.33;;;4.73;;
11076;SDS011;5591;42.626;23.380;2022-09-06T09:18:57;5.63;;;4.47;;
11076;SDS011;5591;42.626;23.380;2022-09-06T09:21:28;5.43;;;4.90;;
11076;SDS011;5591;42.626;23.380;2022-09-06T09:24:00;5.23;;;4.60;;
11076;SDS011;5591;42.626;23.380;2022-09-06T09:26:30;5.53;;;5.03;;
11076;SDS011;5591;42.626;23.380;2022-09-06T09:29:01;9.50;;;6.73;;
11076;SDS011;5591;42.626;23.380;2022-09-06T09:31:33;4.93;;;4.50;;
11076;SDS011;5591;42.626;23.380;2022-09-06T09:34:01;9.57;;;7.97;;
11076;SDS011;5591;42.626;23.380;2022-09-06T09:36:30;7.57;;;6.87;;
11076;SDS011;5591;42.626;23.380;2022-09-06T09:38:58;7.80;;;6.33;;
11076;SDS011;5591;42.626;23.380;2022-09-06T09:41:26;13.23;;;9.17;;
11076;SDS011;5591;42.626;23.380;2022-09-06T09:43:56;5.80;;;5.20;;
11076;SDS011;5591;42.626;23.380;2022-09-06T09:46:28;4.90;;;4.50;;
11076;SDS011;5591;42.626;23.380;2022-09-06T09:49:04;10.43;;;7.63;;
11076;SDS011;5591;42.626;23.380;2022-09-06T09:51:34;6.70;;;4.37;;
11076;SDS011;5591;42.626;23.380;2022-09-06T09:54:03;6.00;;;5.43;;
11076;SDS011;5591;42.626;23.380;2022-09-06T09:56:32;5.77;;;5.27;;
11076;SDS011;5591;42.626;23.380;2022-09-06T09:59:05;4.80;;;4.37;;
11076;SDS011;5591;42.626;23.380;2022-09-06T10:01:41;5.27;;;4.77;;
11076;SDS011;5591;42.626;23.380;2022-09-06T10:04:09;6.93;;;4.67;;
11076;SDS011;5591;42.626;23.380;2022-09-06T10:06:43;4.87;;;4.40;;
11076;SDS011;5591;42.626;23.380;2022-09-06T10:09:13;5.40;;;4.57;;
11076;SDS011;5591;42.626;23.380;2022-09-06T10:11:48;5.50;;;4.43;;
11076;SDS011;5591;42.626;23.380;2022-09-06T10:14:24;6.90;;;6.20;;
11076;SDS011;5591;42.626;23.380;2022-09-06T10:16:56;5.33;;;3.87;;
11076;SDS011;5591;42.626;23.380;2022-09-06T10:19:35;4.20;;;3.80;;
11076;SDS011;5591;42.626;23.380;2022-09-06T10:22:13;6.50;;;3.80;;
11076;SDS011;5591;42.626;23.380;2022-09-06T10:24:55;6.70;;;3.70;;
11076;SDS011;5591;42.626;23.380;2022-09-06T10:30:52;6.53;;;5.30;;
11076;SDS011;5591;42.626;23.380;2022-09-06T10:33:48;3.63;;;3.33;;
11076;SDS011;5591;42.626;23.380;2022-09-06T10:36:25;4.03;;;3.23;;
11076;SDS011;5591;42.626;23.380;2022-09-06T10:38:59;3.40;;;3.10;;
11076;SDS011;5591;42.626;23.380;2022-09-06T10:41:32;3.40;;;3.10;;
11076;SDS011;5591;42.626;23.380;2022-09-06T10:44:12;4.63;;;3.23;;
11076;SDS011;5591;42.626;23.380;2022-09-06T10:46:48;4.63;;;3.33;;
11076;SDS011;5591;42.626;23.380;2022-09-06T10:49:20;3.80;;;3.50;;
11076;SDS011;5591;42.626;23.380;2022-09-06T10:51:49;3.63;;;3.33;;
11076;SDS011;5591;42.626;23.380;2022-09-06T10:54:21;5.80;;;3.27;;
11076;SDS011;5591;42.626;23.380;2022-09-06T10:56:50;3.83;;;3.53;;
11076;SDS011;5591;42.626;23.380;2022-09-06T10:59:25;3.20;;;3.00;;
11076;SDS011;5591;42.626;23.380;2022-09-06T11:01:59;3.63;;;3.27;;
11076;SDS011;5591;42.626;23.380;2022-09-06T11:04:35;3.60;;;3.30;;
11076;SDS011;5591;42.626;23.380;2022-09-06T11:07:04;3.10;;;2.80;;
11076;SDS011;5591;42.626;23.380;2022-09-06T11:09:42;3.43;;;2.87;;
11076;SDS011;5591;42.626;23.380;2022-09-06T11:12:13;2.83;;;2.63;;
11076;SDS011;5591;42.626;23.380;2022-09-06T11:14:44;3.40;;;3.10;;
11076;SDS011;5591;42.626;23.380;2022-09-06T11:17:12;3.10;;;2.90;;
11076;SDS011;5591;42.626;23.380;2022-09-06T11:19:47;3.83;;;3.40;;
11076;SDS011;5591;42.626;23.380;2022-09-06T11:22:36;4.03;;;3.03;;
11076;SDS011;5591;42.626;23.380;2022-09-06T11:28:12;4.20;;;3.40;;
11076;SDS011;5591;42.626;23.380;2022-09-06T11:30:42;4.17;;;3.30;;
11076;SDS011;5591;42.626;23.380;2022-09-06T11:33:16;3.70;;;3.40;;
11076;SDS011;5591;42.626;23.380;2022-09-06T11:35:48;3.23;;;2.73;;
11076;SDS011;5591;42.626;23.380;2022-09-06T11:38:18;3.90;;;2.80;;
11076;SDS011;5591;42.626;23.380;2022-09-06T11:40:51;4.90;;;2.83;;
11076;SDS011;5591;42.626;23.380;2022-09-06T11:43:46;5.53;;;3.33;;
11076;SDS011;5591;42.626;23.380;2022-09-06T11:49:28;5.22;;;2.92;;
11076;SDS011;5591;42.626;23.380;2022-09-06T11:52:01;3.22;;;2.92;;
11076;SDS011;5591;42.626;23.380;2022-09-06T11:54:48;1.95;;;1.85;;
11076;SDS011;5591;42.626;23.380;2022-09-06T11:57:20;2.50;;;2.28;;
11076;SDS011;5591;42.626;23.380;2022-09-06T11:59:52;3.63;;;3.22;;
11076;SDS011;5591;42.626;23.380;2022-09-06T12:02:28;2.77;;;2.57;;
11076;SDS011;5591;42.626;23.380;2022-09-06T12:05:08;2.70;;;2.50;;
11076;SDS011;5591;42.626;23.380;2022-09-06T12:11:01;2.80;;;2.60;;
11076;SDS011;5591;42.626;23.380;2022-09-06T12:13:35;3.00;;;2.70;;
11076;SDS011;5591;42.626;23.380;2022-09-06T12:16:06;2.92;;;2.63;;
11076;SDS011;5591;42.626;23.380;2022-09-06T12:18:51;2.33;;;2.13;;
11076;SDS011;5591;42.626;23.380;2022-09-06T12:21:33;3.50;;;2.42;;
11076;SDS011;5591;42.626;23.380;2022-09-06T12:24:02;2.65;;;2.45;;
11076;SDS011;5591;42.626;23.380;2022-09-06T12:26:43;2.40;;;2.20;;
11076;SDS011;5591;42.626;23.380;2022-09-06T12:29:13;2.60;;;2.30;;
11076;SDS011;5591;42.626;23.380;2022-09-06T12:31:41;4.90;;;2.40;;
11076;SDS011;5591;42.626;23.380;2022-09-06T12:34:11;4.18;;;2.05;;
11076;SDS011;5591;42.626;23.380;2022-09-06T12:36:50;2.22;;;2.03;;
11076;SDS011;5591;42.626;23.380;2022-09-06T12:39:20;4.80;;;2.35;;
11076;SDS011;5591;42.626;23.380;2022-09-06T12:41:48;3.88;;;2.35;;
11076;SDS011;5591;42.626;23.380;2022-09-06T12:44:23;4.57;;;2.17;;
11076;SDS011;5591;42.626;23.380;2022-09-06T12:46:54;3.40;;;2.50;;
11076;SDS011;5591;42.626;23.380;2022-09-06T12:49:27;3.67;;;2.80;;
11076;SDS011;5591;42.626;23.380;2022-09-06T12:52:03;3.33;;;2.63;;
11076;SDS011;5591;42.626;23.380;2022-09-06T12:54:39;4.53;;;2.40;;
11076;SDS011;5591;42.626;23.380;2022-09-06T12:57:12;4.37;;;3.10;;
11076;SDS011;5591;42.626;23.380;2022-09-06T12:59:53;5.80;;;4.23;;
11076;SDS011;5591;42.626;23.380;2022-09-06T13:02:23;5.17;;;2.70;;
11076;SDS011;5591;42.626;23.380;2022-09-06T13:04:57;3.47;;;2.70;;
11076;SDS011;5591;42.626;23.380;2022-09-06T13:07:29;3.50;;;2.30;;
11076;SDS011;5591;42.626;23.380;2022-09-06T13:09:59;4.03;;;2.47;;
11076;SDS011;5591;42.626;23.380;2022-09-06T13:12:30;4.07;;;2.50;;
11076;SDS011;5591;42.626;23.380;2022-09-06T13:15:01;2.73;;;1.90;;
11076;SDS011;5591;42.626;23.380;2022-09-06T13:17:32;2.43;;;2.10;;
11076;SDS011;5591;42.626;23.380;2022-09-06T13:20:08;4.00;;;3.60;;
11076;SDS011;5591;42.626;23.380;2022-09-06T13:22:37;3.33;;;2.40;;
11076;SDS011;5591;42.626;23.380;2022-09-06T13:25:12;2.95;;;2.22;;
11076;SDS011;5591;42.626;23.380;2022-09-06T13:27:49;4.68;;;2.05;;
11076;SDS011;5591;42.626;23.380;2022-09-06T13:30:36;2.40;;;2.20;;
11076;SDS011;5591;42.626;23.380;2022-09-06T13:33:06;3.45;;;3.15;;
11076;SDS011;5591;42.626;23.380;2022-09-06T13:35:45;3.20;;;3.00;;
11076;SDS011;5591;42.626;23.380;2022-09-06T13:38:18;3.65;;;2.65;;
11076;SDS011;5591;42.626;23.380;2022-09-06T13:40:46;3.40;;;3.10;;
11076;SDS011;5591;42.626;23.380;2022-09-06T13:43:15;3.30;;;3.00;;
11076;SDS011;5591;42.626;23.380;2022-09-06T13:45:50;2.28;;;2.08;;
11076;SDS011;5591;42.626;23.380;2022-09-06T13:48:29;4.10;;;2.90;;
11076;SDS011;5591;42.626;23.380;2022-09-06T13:50:55;3.78;;;2.42;;
11076;SDS011;5591;42.626;23.380;2022-09-06T13:53:22;3.72;;;1.98;;
11076;SDS011;5591;42.626;23.380;2022-09-06T13:55:49;2.58;;;2.38;;
11076;SDS011;5591;42.626;23.380;2022-09-06T13:58:17;2.30;;;2.10;;
11076;SDS011;5591;42.626;23.380;2022-09-06T14:00:44;3.05;;;2.33;;
11076;SDS011;5591;42.626;23.380;2022-09-06T14:03:13;2.45;;;2.10;;
11076;SDS011;5591;42.626;23.380;2022-09-06T14:05:46;3.65;;;2.00;;
11076;SDS011;5591;42.626;23.380;2022-09-06T14:08:13;2.88;;;2.40;;
11076;SDS011;5591;42.626;23.380;2022-09-06T14:10:40;2.97;;;2.10;;
11076;SDS011;5591;42.626;23.380;2022-09-06T14:13:06;3.17;;;2.70;;
11076;SDS011;5591;42.626;23.380;2022-09-06T14:15:34;3.05;;;2.67;;
11076;SDS011;5591;42.626;23.380;2022-09-06T14:18:01;5.20;;;1.90;;
11076;SDS011;5591;42.626;23.380;2022-09-06T14:20:29;4.18;;;2.53;;
11076;SDS011;5591;42.626;23.380;2022-09-06T14:22:56;2.25;;;2.05;;
11076;SDS011;5591;42.626;23.380;2022-09-06T14:25:22;2.88;;;2.25;;
11076;SDS011;5591;42.626;23.380;2022-09-06T14:27:49;3.88;;;2.30;;
11076;SDS011;5591;42.626;23.380;2022-09-06T14:30:16;3.08;;;2.00;;
11076;SDS011;5591;42.626;23.380;2022-09-06T14:32:43;3.00;;;2.38;;
11076;SDS011;5591;42.626;23.380;2022-09-06T14:35:10;4.82;;;4.43;;
11076;SDS011;5591;42.626;23.380;2022-09-06T14:37:38;3.05;;;2.80;;
11076;SDS011;5591;42.626;23.380;2022-09-06T14:40:05;6.83;;;6.23;;
11076;SDS011;5591;42.626;23.380;2022-09-06T14:42:34;2.10;;;1.90;;
11076;SDS011;5591;42.626;23.380;2022-09-06T14:45:01;2.60;;;2.40;;
11076;SDS011;5591;42.626;23.380;2022-09-06T14:47:28;3.23;;;2.20;;
11076;SDS011;5591;42.626;23.380;2022-09-06T14:49:55;4.03;;;2.50;;
11076;SDS011;5591;42.626;23.380;2022-09-06T14:52:22;3.33;;;2.97;;
11076;SDS011;5591;42.626;23.380;2022-09-06T14:54:50;4.53;;;2.57;;
11076;SDS011;5591;42.626;23.380;2022-09-06T14:57:17;2.30;;;2.10;;
11076;SDS011;5591;42.626;23.380;2022-09-06T14:59:44;3.60;;;2.40;;
11076;SDS011;5591;42.626;23.380;2022-09-06T15:02:11;3.20;;;2.70;;
11076;SDS011;5591;42.626;23.380;2022-09-06T15:04:37;2.77;;;2.50;;
11076;SDS011;5591;42.626;23.380;2022-09-06T15:07:05;9.10;;;2.30;;
11076;SDS011;5591;42.626;23.380;2022-09-06T15:09:32;3.07;;;2.27;;
11076;SDS011;5591;42.626;23.380;2022-09-06T15:12:01;2.20;;;1.97;;
11076;SDS011;5591;42.626;23.380;2022-09-06T15:14:28;6.07;;;2.33;;
11076;SDS011;5591;42.626;23.380;2022-09-06T15:16:55;2.40;;;2.20;;
11076;SDS011;5591;42.626;23.380;2022-09-06T15:19:24;4.37;;;2.50;;
11076;SDS011;5591;42.626;23.380;2022-09-06T15:21:52;4.70;;;2.10;;